createdAt,value
2023-02-03T00:00:28.136Z,7.30
2023-02-03T00:02:55.919Z,7.30
2023-02-03T00:05:51.113Z,7.30
2023-02-03T00:08:19.200Z,7.30
2023-02-03T00:10:46.325Z,7.30
2023-02-03T00:13:14.413Z,7.30
2023-02-03T00:16:00.756Z,7.30
2023-02-03T00:18:27.741Z,7.30
2023-02-03T00:20:54.502Z,7.30
2023-02-03T00:23:25.174Z,7.30
2023-02-03T00:25:56.764Z,7.40
2023-02-03T00:28:23.545Z,7.40
2023-02-03T00:30:56.067Z,7.40
2023-02-03T00:33:22.766Z,7.40
2023-02-03T00:35:49.306Z,7.40
2023-02-03T00:38:15.940Z,7.30
2023-02-03T00:40:42.679Z,7.40
2023-02-03T00:43:09.406Z,7.40
2023-02-03T00:45:36.008Z,7.30
2023-02-03T00:48:05.753Z,7.30
2023-02-03T00:56:32.586Z,7.20
2023-02-03T00:58:59.416Z,7.20
2023-02-03T01:01:31.276Z,7.20
2023-02-03T01:03:58.603Z,7.30
2023-02-03T01:06:25.812Z,7.20
2023-02-03T01:08:58.187Z,7.30
2023-02-03T01:11:26.912Z,7.30
2023-02-03T01:13:56.109Z,7.20
2023-02-03T01:16:25.989Z,7.20
2023-02-03T01:18:54.778Z,7.10
2023-02-03T01:21:24.160Z,7.20
2023-02-03T01:23:55.167Z,7.20
2023-02-03T01:26:23.347Z,7.20
2023-02-03T01:28:52.115Z,7.20
2023-02-03T01:31:45.929Z,7.20
2023-02-03T01:34:17.765Z,7.10
2023-02-03T01:36:52.047Z,7.20
2023-02-03T01:39:28.406Z,7.20
2023-02-03T01:41:55.996Z,7.10
2023-02-03T01:44:35.188Z,7.20
2023-02-03T01:47:03.073Z,7.20
2023-02-03T01:49:35.387Z,7.20
2023-02-03T01:52:03.278Z,7.20
2023-02-03T01:54:33.134Z,7.20
2023-02-03T01:57:13.713Z,7.10
2023-02-03T01:59:59.705Z,7.10
2023-02-03T02:02:28.461Z,7.10
2023-02-03T02:05:26.867Z,7.00
2023-02-03T02:07:55.912Z,7.10
2023-02-03T02:10:25.526Z,7.00
2023-02-03T02:12:56.795Z,7.00
2023-02-03T02:15:51.799Z,7.00
2023-02-03T02:18:45.827Z,6.90
2023-02-03T02:21:27.541Z,6.90
2023-02-03T02:24:13.788Z,7.00
2023-02-03T02:27:11.376Z,6.90
2023-02-03T02:30:12.040Z,6.90
2023-02-03T02:32:39.691Z,6.90
2023-02-03T02:35:20.876Z,6.90
2023-02-03T02:38:38.398Z,6.90
2023-02-03T02:41:25.966Z,6.80
2023-02-03T02:44:08.618Z,6.80
2023-02-03T02:46:41.934Z,6.80
2023-02-03T02:49:21.960Z,6.90
2023-02-03T02:51:50.011Z,6.90
2023-02-03T02:54:26.114Z,6.90
2023-02-03T02:57:02.643Z,6.90
2023-02-03T02:59:32.151Z,6.90
2023-02-03T03:01:58.762Z,7.00
2023-02-03T03:04:30.877Z,6.90
2023-02-03T03:13:16.458Z,7.00
2023-02-03T03:15:45.100Z,7.00
2023-02-03T03:18:20.624Z,7.10
2023-02-03T03:20:51.067Z,7.10
2023-02-03T03:23:38.712Z,7.00
2023-02-03T03:26:10.631Z,7.00
2023-02-03T03:28:56.463Z,7.10
2023-02-03T03:31:23.541Z,7.10
2023-02-03T03:33:51.008Z,7.10
2023-02-03T03:36:38.324Z,7.10
2023-02-03T03:39:35.570Z,7.10
2023-02-03T03:42:11.488Z,7.10
2023-02-03T03:44:57.560Z,7.00
2023-02-03T03:47:30.661Z,7.00
2023-02-03T03:50:03.269Z,7.10
2023-02-03T03:52:40.158Z,7.00
2023-02-03T03:55:13.586Z,7.00
2023-02-03T03:57:54.148Z,7.00
2023-02-03T04:00:24.261Z,7.00
2023-02-03T04:02:56.098Z,6.90
2023-02-03T04:05:24.304Z,7.00
2023-02-03T04:07:53.077Z,7.00
2023-02-03T04:10:38.930Z,7.00
2023-02-03T04:13:06.951Z,7.00
2023-02-03T04:15:34.193Z,6.90
2023-02-03T04:18:04.409Z,6.90
2023-02-03T04:20:31.946Z,6.90
2023-02-03T04:23:01.356Z,6.90
2023-02-03T04:25:28.980Z,6.90
2023-02-03T04:27:57.145Z,6.90
2023-02-03T04:30:23.830Z,6.90
2023-02-03T04:32:53.139Z,6.90
2023-02-03T04:35:19.804Z,6.90
2023-02-03T04:37:49.066Z,6.80
2023-02-03T04:40:19.308Z,6.80
2023-02-03T04:42:46.143Z,6.70
2023-02-03T04:45:15.311Z,6.70
2023-02-03T04:47:44.333Z,6.70
2023-02-03T04:50:16.121Z,6.70
2023-02-03T04:52:42.746Z,6.60
2023-02-03T04:55:10.148Z,6.60
2023-02-03T04:57:38.948Z,6.70
2023-02-03T05:00:06.301Z,6.70
2023-02-03T05:02:39.232Z,6.70
2023-02-03T05:05:07.288Z,6.70
2023-02-03T05:07:39.312Z,6.70
2023-02-03T05:10:06.432Z,6.70
2023-02-03T05:12:36.997Z,6.70
2023-02-03T05:15:05.516Z,6.80
2023-02-03T05:17:38.173Z,6.70
2023-02-03T05:20:10.424Z,6.70
2023-02-03T05:22:37.201Z,6.70
2023-02-03T05:25:06.567Z,6.80
2023-02-03T05:27:38.661Z,6.80
2023-02-03T05:30:06.953Z,6.80
2023-02-03T05:32:33.651Z,6.80
2023-02-03T05:35:01.571Z,6.90
2023-02-03T05:37:28.482Z,6.90
2023-02-03T05:40:15.305Z,6.90
2023-02-03T05:42:52.511Z,6.90
2023-02-03T05:48:33.325Z,6.90
2023-02-03T05:51:00.125Z,6.80
2023-02-03T05:53:26.933Z,6.90
2023-02-03T05:56:00.202Z,6.90
2023-02-03T05:58:50.610Z,6.80
2023-02-03T06:01:21.430Z,6.80
2023-02-03T06:03:48.551Z,6.80
2023-02-03T06:06:19.159Z,6.90
2023-02-03T06:08:45.815Z,6.80
2023-02-03T06:11:12.736Z,6.90
2023-02-03T06:13:39.634Z,6.80
2023-02-03T06:16:31.575Z,6.80
2023-02-03T06:19:01.339Z,6.90
2023-02-03T06:21:54.714Z,6.80
2023-02-03T06:24:21.413Z,6.80
2023-02-03T06:26:52.639Z,6.90
2023-02-03T06:29:21.828Z,6.80
2023-02-03T06:31:48.619Z,6.90
2023-02-03T06:34:16.796Z,6.90
2023-02-03T06:36:43.512Z,6.90
2023-02-03T06:39:10.394Z,6.90
2023-02-03T06:41:37.161Z,6.90
2023-02-03T06:44:22.015Z,6.90
2023-02-03T06:46:50.006Z,6.90
2023-02-03T06:49:17.510Z,6.90
2023-02-03T06:51:48.354Z,6.90
2023-02-03T06:54:16.262Z,6.80
2023-02-03T06:56:45.274Z,6.80
2023-02-03T06:59:13.376Z,6.80
2023-02-03T07:01:40.258Z,6.90
2023-02-03T07:04:07.094Z,6.90
2023-02-03T07:06:41.076Z,6.90
2023-02-03T07:09:10.098Z,6.90
2023-02-03T07:11:36.805Z,6.90
2023-02-03T07:14:03.693Z,6.90
2023-02-03T07:16:39.514Z,6.90
2023-02-03T07:19:12.304Z,6.90
2023-02-03T07:21:39.361Z,6.90
2023-02-03T07:24:12.072Z,6.90
2023-02-03T07:26:42.133Z,6.90
2023-02-03T07:29:09.057Z,6.90
2023-02-03T07:31:39.185Z,6.80
2023-02-03T07:34:06.053Z,6.80
2023-02-03T07:36:35.854Z,6.90
2023-02-03T07:39:03.265Z,6.90
2023-02-03T07:41:30.144Z,6.90
2023-02-03T07:43:57.010Z,6.90
2023-02-03T07:46:26.476Z,6.90
2023-02-03T07:48:55.394Z,6.90
2023-02-03T07:51:22.219Z,6.90
2023-02-03T07:53:53.470Z,6.90
2023-02-03T07:56:20.166Z,6.90
2023-02-03T07:58:46.903Z,6.90
2023-02-03T08:01:15.766Z,6.90
2023-02-03T08:03:45.521Z,7.00
2023-02-03T08:06:13.444Z,7.00
2023-02-03T08:08:41.355Z,6.90
2023-02-03T08:11:10.931Z,6.90
2023-02-03T08:13:38.457Z,6.90
2023-02-03T08:16:05.772Z,6.90
2023-02-03T08:18:35.793Z,6.90
2023-02-03T08:21:04.112Z,6.80
2023-02-03T08:23:31.381Z,6.80
2023-02-03T08:32:05.327Z,6.80
2023-02-03T08:34:33.407Z,6.80
2023-02-03T08:37:00.134Z,6.80
2023-02-03T08:39:27.436Z,6.80
2023-02-03T08:41:56.948Z,6.90
2023-02-03T08:44:27.779Z,6.90
2023-02-03T08:46:54.420Z,6.90
2023-02-03T08:49:23.509Z,6.90
2023-02-03T08:51:57.860Z,6.90
2023-02-03T08:54:25.378Z,6.90
2023-02-03T08:56:52.400Z,6.90
2023-02-03T08:59:19.610Z,6.90
2023-02-03T09:01:47.715Z,6.90
2023-02-03T09:04:36.301Z,6.90
2023-02-03T09:07:05.382Z,7.00
2023-02-03T09:09:32.390Z,6.90
2023-02-03T09:12:04.789Z,7.00
2023-02-03T09:14:33.568Z,7.00
2023-02-03T09:17:07.592Z,7.00
2023-02-03T09:19:37.948Z,7.00
2023-02-03T09:22:05.168Z,7.00
2023-02-03T09:24:32.239Z,7.00
2023-02-03T09:27:00.718Z,7.00
2023-02-03T09:29:31.737Z,7.10
2023-02-03T09:31:59.393Z,7.10
2023-02-03T09:34:26.196Z,7.20
2023-02-03T09:36:55.535Z,7.20
2023-02-03T09:39:22.253Z,7.30
2023-02-03T09:42:28.048Z,7.30
2023-02-03T09:45:09.442Z,7.30
2023-02-03T09:47:42.809Z,7.30
2023-02-03T09:50:22.103Z,7.30
2023-02-03T09:52:52.620Z,7.30
2023-02-03T09:55:48.647Z,7.20
2023-02-03T09:58:22.459Z,7.20
2023-02-03T10:00:58.627Z,7.20
2023-02-03T10:03:49.614Z,7.20
2023-02-03T10:06:36.913Z,7.20
2023-02-03T10:09:30.273Z,7.30
2023-02-03T10:12:23.425Z,7.40
2023-02-03T10:14:52.513Z,7.30
2023-02-03T10:17:49.524Z,7.40
2023-02-03T10:27:40.815Z,7.40
2023-02-03T10:36:23.015Z,7.40
2023-02-03T10:39:17.208Z,7.40
2023-02-03T10:41:44.073Z,7.40
2023-02-03T10:44:13.365Z,7.40
2023-02-03T10:46:44.726Z,7.40
2023-02-03T10:49:15.616Z,7.50
2023-02-03T10:51:55.042Z,7.50
2023-02-03T10:54:33.780Z,7.50
2023-02-03T10:57:13.325Z,7.50
2023-02-03T10:59:52.453Z,7.50
2023-02-03T11:02:29.547Z,7.60
2023-02-03T11:05:17.727Z,7.60
2023-02-03T11:07:45.671Z,7.60
2023-02-03T11:10:34.909Z,7.60
2023-02-03T11:13:24.626Z,7.60
2023-02-03T11:16:03.359Z,7.70
2023-02-03T11:18:40.581Z,7.70
2023-02-03T11:21:17.832Z,7.70
2023-02-03T11:23:56.995Z,7.70
2023-02-03T11:26:48.918Z,7.70
2023-02-03T11:29:30.849Z,7.70
2023-02-03T11:32:02.697Z,7.70
2023-02-03T11:34:32.707Z,7.70
2023-02-03T11:37:26.402Z,7.70
2023-02-03T11:40:10.304Z,7.60
2023-02-03T11:42:58.990Z,7.70
2023-02-03T11:45:35.349Z,7.70
2023-02-03T11:48:27.118Z,7.70
2023-02-03T11:51:01.887Z,7.70
2023-02-03T11:53:31.544Z,7.80
2023-02-03T11:56:16.099Z,7.80
2023-02-03T11:59:14.495Z,7.90
2023-02-03T12:02:10.786Z,7.90
2023-02-03T12:05:04.654Z,8.00
2023-02-03T12:07:47.753Z,8.10
2023-02-03T12:10:52.605Z,8.20
2023-02-03T12:14:04.837Z,8.30
2023-02-03T12:17:01.963Z,8.40
2023-02-03T12:19:52.153Z,8.30
2023-02-03T12:22:45.099Z,8.30
2023-02-03T12:25:45.672Z,8.30
2023-02-03T12:28:33.376Z,8.20
2023-02-03T12:31:28.638Z,8.20
2023-02-03T12:34:33.822Z,8.30
2023-02-03T12:37:10.018Z,8.20
2023-02-03T12:39:51.798Z,8.20
2023-02-03T12:42:26.751Z,8.20
2023-02-03T12:45:03.731Z,8.20
2023-02-03T12:48:05.595Z,8.20
2023-02-03T12:50:45.197Z,8.20
2023-02-03T12:53:30.143Z,8.20
2023-02-03T12:56:35.773Z,8.20
2023-02-03T12:59:22.091Z,8.20
2023-02-03T13:02:04.036Z,8.30
2023-02-03T13:05:06.749Z,8.40
2023-02-03T13:07:51.479Z,8.40
2023-02-03T13:10:48.115Z,8.50
2023-02-03T13:13:28.587Z,8.50
2023-02-03T13:15:57.150Z,8.60
2023-02-03T13:18:41.498Z,8.60
2023-02-03T13:21:15.597Z,8.60
2023-02-03T13:23:44.167Z,8.70
2023-02-03T13:26:48.123Z,8.70
2023-02-03T13:29:33.680Z,8.70
2023-02-03T13:32:44.867Z,8.70
2023-02-03T13:35:36.666Z,8.80
2023-02-03T13:38:09.719Z,8.70
2023-02-03T13:41:01.217Z,8.70
2023-02-03T13:43:39.265Z,8.70
2023-02-03T13:46:14.242Z,8.70
2023-02-03T13:48:45.889Z,8.70
2023-02-03T13:51:15.107Z,8.70
2023-02-03T13:53:49.211Z,8.70
2023-02-03T13:56:29.029Z,8.60
2023-02-03T13:59:42.385Z,8.60
2023-02-03T14:02:21.179Z,8.60
2023-02-03T14:04:51.868Z,8.60
2023-02-03T14:07:45.183Z,8.60
2023-02-03T14:10:17.204Z,8.60
2023-02-03T14:12:51.225Z,8.60
2023-02-03T14:15:32.380Z,8.60
2023-02-03T14:18:12.369Z,8.60
2023-02-03T14:20:44.199Z,8.50
2023-02-03T14:23:21.611Z,8.50
2023-02-03T14:26:02.874Z,8.50
2023-02-03T14:28:40.157Z,8.50
2023-02-03T14:31:11.795Z,8.50
2023-02-03T14:34:05.573Z,8.50
2023-02-03T14:36:35.539Z,8.50
2023-02-03T14:39:17.209Z,8.50
2023-02-03T14:41:46.918Z,8.50
2023-02-03T14:44:14.136Z,8.50
2023-02-03T14:47:20.906Z,8.50
2023-02-03T14:50:02.025Z,8.50
2023-02-03T14:53:15.658Z,8.50
2023-02-03T14:56:08.307Z,8.50
2023-02-03T14:58:57.877Z,8.50
2023-02-03T15:01:45.882Z,8.50
2023-02-03T15:04:15.899Z,8.60
2023-02-03T15:06:52.411Z,8.50
2023-02-03T15:09:42.499Z,8.50
2023-02-03T15:12:23.280Z,8.50
2023-02-03T15:14:50.260Z,8.50
2023-02-03T15:17:37.645Z,8.50
2023-02-03T15:20:33.349Z,8.50
2023-02-03T15:23:03.495Z,8.50
2023-02-03T15:25:32.260Z,8.50
2023-02-03T15:28:12.889Z,8.40
2023-02-03T15:31:15.945Z,8.40
2023-02-03T15:33:47.496Z,8.40
2023-02-03T15:42:41.871Z,8.40
2023-02-03T15:45:37.199Z,8.30
2023-02-03T15:48:28.345Z,8.30
2023-02-03T15:51:04.725Z,8.30
2023-02-03T15:53:51.587Z,8.30
2023-02-03T15:56:25.912Z,8.30
2023-02-03T15:59:43.428Z,8.30
2023-02-03T16:02:23.961Z,8.30
2023-02-03T16:04:53.818Z,8.20
2023-02-03T16:07:29.070Z,8.20
2023-02-03T16:10:00.941Z,8.20
2023-02-03T16:12:30.552Z,8.10
2023-02-03T16:15:02.713Z,8.10
2023-02-03T16:17:41.314Z,8.00
2023-02-03T16:20:11.105Z,8.00
2023-02-03T16:22:37.842Z,8.00
2023-02-03T16:25:17.688Z,8.00
2023-02-03T16:28:22.411Z,8.00
2023-02-03T16:31:33.050Z,8.00
2023-02-03T16:34:32.050Z,7.90
2023-02-03T16:37:18.075Z,7.90
2023-02-03T16:40:07.467Z,7.90
2023-02-03T16:43:00.002Z,8.00
2023-02-03T16:45:57.873Z,8.00
2023-02-03T16:48:49.626Z,8.00
2023-02-03T16:51:17.496Z,8.00
2023-02-03T16:53:47.467Z,8.00
2023-02-03T16:56:17.123Z,8.00
2023-02-03T16:59:37.488Z,8.00
2023-02-03T17:02:36.967Z,8.00
2023-02-03T17:05:13.035Z,8.10
2023-02-03T17:07:44.345Z,8.10
2023-02-03T17:10:14.885Z,8.00
2023-02-03T17:12:46.278Z,8.10
2023-02-03T17:15:21.256Z,8.00
2023-02-03T17:17:48.760Z,8.00
2023-02-03T17:20:21.116Z,8.10
2023-02-03T17:22:55.091Z,8.10
2023-02-03T17:28:09.136Z,8.00
2023-02-03T17:30:43.789Z,8.10
2023-02-03T17:33:14.409Z,8.10
2023-02-03T17:35:46.730Z,8.10
2023-02-03T17:38:18.302Z,8.10
2023-02-03T17:55:18.204Z,8.20
2023-02-03T17:57:52.301Z,8.20
2023-02-03T18:00:22.916Z,8.20
2023-02-03T18:05:41.155Z,8.10
2023-02-03T18:08:20.246Z,8.10
2023-02-03T18:13:57.304Z,8.10
2023-02-03T18:16:35.299Z,8.10
2023-02-03T18:19:12.261Z,8.20
2023-02-03T18:21:40.784Z,8.10
2023-02-03T18:24:12.748Z,8.10
2023-02-03T18:26:51.241Z,8.20
2023-02-03T18:29:50.324Z,8.20
2023-02-03T18:32:21.926Z,8.10
2023-02-03T18:35:18.031Z,8.10
2023-02-03T18:37:46.920Z,8.10
2023-02-03T18:40:17.182Z,8.10
2023-02-03T18:42:46.453Z,8.10
2023-02-03T18:45:19.176Z,8.10
2023-02-03T18:47:48.476Z,8.00
2023-02-03T18:50:18.472Z,8.00
2023-02-03T18:52:52.710Z,8.00
2023-02-03T18:55:19.574Z,8.00
2023-02-03T18:57:47.990Z,8.00
2023-02-03T19:00:20.505Z,8.00
2023-02-03T19:02:51.074Z,8.00
2023-02-03T19:05:18.367Z,8.00
2023-02-03T19:08:13.642Z,8.00
2023-02-03T19:10:41.752Z,8.00
2023-02-03T19:13:11.510Z,8.00
2023-02-03T19:15:41.618Z,8.00
2023-02-03T19:18:11.588Z,8.00
2023-02-03T19:20:39.112Z,8.00
2023-02-03T19:23:12.449Z,8.00
2023-02-03T19:25:39.405Z,8.00
2023-02-03T19:28:14.313Z,8.00
2023-02-03T19:30:46.794Z,8.00
2023-02-03T19:33:13.694Z,8.00
2023-02-03T19:35:41.812Z,8.00
2023-02-03T19:38:08.805Z,7.90
2023-02-03T19:40:44.297Z,7.90
2023-02-03T19:43:15.343Z,7.90
2023-02-03T19:45:42.115Z,7.90
2023-02-03T19:48:10.579Z,7.90
2023-02-03T19:50:56.338Z,7.90
2023-02-03T19:53:27.487Z,7.90
2023-02-03T19:55:56.355Z,7.80
2023-02-03T19:58:25.349Z,7.90
2023-02-03T20:01:42.728Z,7.90
2023-02-03T20:05:00.853Z,7.90
2023-02-03T20:08:44.316Z,7.90
2023-02-03T20:11:39.737Z,7.90
2023-02-03T20:14:07.127Z,7.90
2023-02-03T20:16:34.367Z,7.90
2023-02-03T20:19:03.310Z,7.80
2023-02-03T20:21:38.662Z,7.80
2023-02-03T20:24:07.337Z,7.80
2023-02-03T20:26:36.580Z,7.80
2023-02-03T20:29:04.080Z,7.80
2023-02-03T20:31:31.038Z,7.80
2023-02-03T20:34:00.409Z,7.80
2023-02-03T20:36:29.839Z,7.80
2023-02-03T20:38:57.584Z,7.80
2023-02-03T20:41:35.043Z,7.80
2023-02-03T20:44:54.522Z,7.80
2023-02-03T20:48:11.653Z,7.90
2023-02-03T20:50:42.701Z,7.90
2023-02-03T20:53:17.930Z,7.80
2023-02-03T20:55:46.082Z,7.90
2023-02-03T20:58:27.494Z,7.90
2023-02-03T21:00:56.656Z,7.90
2023-02-03T21:06:40.454Z,8.00
2023-02-03T21:09:20.173Z,8.00
2023-02-03T21:11:53.203Z,7.90
2023-02-03T21:14:26.535Z,8.00
2023-02-03T21:16:54.741Z,7.90
2023-02-03T21:19:29.346Z,8.00
2023-02-03T21:21:56.761Z,8.00
2023-02-03T21:24:35.943Z,8.00
2023-02-03T21:27:30.285Z,8.00
2023-02-03T21:29:58.539Z,8.00
2023-02-03T21:32:39.941Z,8.00
2023-02-03T21:38:58.384Z,8.00
2023-02-03T21:45:24.072Z,8.00
2023-02-03T21:48:43.661Z,8.00
2023-02-03T21:51:30.675Z,8.00
2023-02-03T21:53:59.932Z,8.00
2023-02-03T21:56:41.153Z,8.00
2023-02-03T21:59:23.666Z,8.00
2023-02-03T22:01:52.332Z,8.00
2023-02-03T22:04:25.013Z,8.00
2023-02-03T22:06:55.883Z,8.00
2023-02-03T22:09:24.589Z,8.00
2023-02-03T22:11:52.250Z,8.00
2023-02-03T22:14:21.586Z,8.10
2023-02-03T22:16:49.869Z,8.10
2023-02-03T22:19:16.841Z,8.10
2023-02-03T22:21:44.082Z,8.10
2023-02-03T22:24:10.998Z,8.10
2023-02-03T22:26:37.729Z,8.10
2023-02-03T22:29:04.930Z,8.10
2023-02-03T22:31:40.053Z,8.10
2023-02-03T22:34:08.314Z,8.10
2023-02-03T22:36:34.998Z,8.10
2023-02-03T22:39:01.880Z,8.10
2023-02-03T22:41:28.661Z,8.00
2023-02-03T22:43:58.680Z,8.00
2023-02-03T22:46:25.576Z,8.00
2023-02-03T22:48:52.453Z,8.00
2023-02-03T22:51:19.100Z,8.10
2023-02-03T22:53:45.765Z,8.10
2023-02-03T22:56:12.478Z,8.10
2023-02-03T22:59:05.059Z,8.10
2023-02-03T23:01:34.088Z,8.10
2023-02-03T23:04:06.788Z,8.10
2023-02-03T23:06:33.495Z,8.10
2023-02-03T23:12:18.224Z,8.10
2023-02-03T23:14:49.803Z,8.00
2023-02-03T23:17:19.167Z,8.00
2023-02-03T23:19:50.064Z,8.00
2023-02-03T23:23:09.018Z,8.00
2023-02-03T23:26:55.771Z,8.00
2023-02-03T23:29:25.155Z,8.00
2023-02-03T23:32:41.899Z,8.00
2023-02-03T23:35:29.259Z,8.00
2023-02-03T23:37:59.679Z,8.00
2023-02-03T23:40:30.240Z,8.00
2023-02-03T23:42:59.726Z,7.90
2023-02-03T23:46:21.816Z,7.90
2023-02-03T23:48:54.804Z,7.90
2023-02-03T23:51:21.479Z,7.90
2023-02-03T23:54:15.990Z,7.90
2023-02-03T23:56:44.242Z,7.80
2023-02-03T23:59:14.573Z,7.80
